Time;durP1;ratioP1;P1;durP2;ratioP2;P2;SDS_P1;SDS_P2;PMS_P1;PMS_P2;Temp;Humidity;BMP_temperature;BMP_pressure;BME280_temperature;BME280_humidity;BME280_pressure;Samples;Min_cycle;Max_cycle;Signal;HPM_P1;HPM_P2
2024/01/01 00:00:29;;;;;;;23.83;11.75;;;;;;;;;;2033268;29;20036;-83
2024/01/01 00:01:50;;;;;;;18.73;11.20;;;;;;;;;;2025104;29;20374;-84
2024/01/01 00:03:14;;;;;;;23.67;12.15;;;;;;;;;;2030966;29;20032;-84
2024/01/01 00:04:35;;;;;;;22.35;12.98;;;;;;;;;;2025523;29;20029;-85
2024/01/01 00:05:56;;;;;;;54.30;21.40;;;;;;;;;;2020702;29;20036;-84
2024/01/01 00:07:17;;;;;;;28.10;13.93;;;;;;;;;;2033837;29;20112;-84
2024/01/01 00:08:38;;;;;;;22.27;12.65;;;;;;;;;;2029427;29;20032;-84
2024/01/01 00:09:59;;;;;;;30.25;17.88;;;;;;;;;;2031448;29;20040;-81
2024/01/01 00:11:20;;;;;;;24.58;13.48;;;;;;;;;;2032492;29;20043;-81
2024/01/01 00:12:41;;;;;;;29.63;13.65;;;;;;;;;;2033072;29;20044;-82
2024/01/01 00:14:04;;;;;;;26.63;13.95;;;;;;;;;;2030793;29;20036;-83
2024/01/01 00:15:25;;;;;;;27.00;13.23;;;;;;;;;;2030649;29;20504;-82
2024/01/01 00:16:52;;;;;;;16.75;9.82;;;;;;;;;;2037433;29;20075;-82
2024/01/01 00:18:22;;;;;;;22.05;10.45;;;;;;;;;;2041715;29;20032;-82
2024/01/01 00:19:43;;;;;;;22.75;9.75;;;;;;;;;;2033149;29;20028;-81
2024/01/01 00:21:07;;;;;;;22.13;9.73;;;;;;;;;;2039119;29;20027;-81
2024/01/01 00:22:28;;;;;;;20.48;9.63;;;;;;;;;;2032759;29;20039;-81
2024/01/01 00:23:51;;;;;;;11.57;7.95;;;;;;;;;;2030566;29;20048;-82
2024/01/01 00:25:15;;;;;;;20.90;9.02;;;;;;;;;;2028567;29;20037;-83
2024/01/01 00:26:36;;;;;;;11.95;6.82;;;;;;;;;;2032632;29;20036;-80
2024/01/01 00:27:57;;;;;;;10.68;6.93;;;;;;;;;;2027996;29;20036;-80
2024/01/01 00:29:18;;;;;;;11.45;6.75;;;;;;;;;;2026173;29;20087;-83
2024/01/01 00:30:39;;;;;;;11.35;7.05;;;;;;;;;;2032182;29;20043;-85
2024/01/01 00:32:00;;;;;;;7.88;6.35;;;;;;;;;;2026746;29;20040;-81
2024/01/01 00:33:23;;;;;;;8.05;5.93;;;;;;;;;;2033290;29;20048;-83
2024/01/01 00:34:44;;;;;;;8.50;6.40;;;;;;;;;;2033025;29;20036;-82
2024/01/01 00:36:05;;;;;;;36.97;11.85;;;;;;;;;;2031307;29;20464;-78
2024/01/01 00:37:26;;;;;;;9.43;6.20;;;;;;;;;;2029033;29;20028;-81
2024/01/01 00:38:50;;;;;;;9.20;6.97;;;;;;;;;;2029935;29;20029;-83
2024/01/01 00:40:11;;;;;;;13.65;7.18;;;;;;;;;;2032034;29;20043;-83
2024/01/01 00:41:32;;;;;;;7.75;5.68;;;;;;;;;;2033631;29;20032;-82
2024/01/01 00:42:53;;;;;;;9.43;6.70;;;;;;;;;;2033613;29;20029;-81
2024/01/01 00:44:14;;;;;;;10.48;7.22;;;;;;;;;;2033748;29;20036;-82
2024/01/01 00:45:35;;;;;;;11.55;6.00;;;;;;;;;;2030417;29;20040;-81
2024/01/01 00:47:09;;;;;;;13.60;7.65;;;;;;;;;;2036572;29;20044;-80
2024/01/01 00:48:30;;;;;;;11.20;6.57;;;;;;;;;;2041088;29;20050;-82
2024/01/01 00:49:51;;;;;;;10.50;7.25;;;;;;;;;;2041831;29;20044;-83
2024/01/01 00:51:15;;;;;;;9.55;7.22;;;;;;;;;;2036180;29;20409;-83
2024/01/01 00:53:11;;;;;;;8.85;6.82;;;;;;;;;;2039746;29;20087;-83
2024/01/01 00:54:32;;;;;;;8.85;6.57;;;;;;;;;;1994468;29;20030;-84
2024/01/01 00:56:07;;;;;;;;;;;;;;;;;;1995073;29;20081;-80
2024/01/01 00:57:33;;;;;;;10.25;7.55;;;;;;;;;;2032861;29;19962;-82
2024/01/01 00:58:54;;;;;;;11.82;7.50;;;;;;;;;;2033243;29;20055;-84
2024/01/01 01:00:15;;;;;;;8.45;6.95;;;;;;;;;;2035251;29;20024;-80
2024/01/01 01:01:37;;;;;;;9.18;6.93;;;;;;;;;;2032273;29;20036;-80
2024/01/01 01:02:58;;;;;;;12.40;8.35;;;;;;;;;;2030448;29;20132;-81
2024/01/01 01:04:19;;;;;;;8.77;6.95;;;;;;;;;;2032934;29;20394;-84
2024/01/01 01:05:40;;;;;;;12.15;8.73;;;;;;;;;;2033226;29;20044;-82
2024/01/01 01:07:02;;;;;;;11.50;8.18;;;;;;;;;;2038321;29;20051;-83
2024/01/01 01:08:39;;;;;;;16.00;9.38;;;;;;;;;;2029638;29;20040;-81
2024/01/01 01:10:04;;;;;;;11.60;8.07;;;;;;;;;;2033480;29;20032;-84
2024/01/01 01:11:25;;;;;;;9.90;7.68;;;;;;;;;;2034180;29;20059;-81
2024/01/01 01:12:46;;;;;;;7.88;7.05;;;;;;;;;;2025609;29;20542;-82
2024/01/01 01:14:13;;;;;;;10.00;7.70;;;;;;;;;;2027734;29;20505;-81
2024/01/01 01:15:37;;;;;;;9.40;6.93;;;;;;;;;;2035966;29;20126;-81
2024/01/01 01:16:58;;;;;;;11.95;7.63;;;;;;;;;;2033084;29;20512;-79
2024/01/01 01:18:19;;;;;;;15.00;8.15;;;;;;;;;;2033959;29;20016;-81
2024/01/01 01:19:40;;;;;;;12.13;7.25;;;;;;;;;;2030536;29;20024;-81
2024/01/01 01:21:03;;;;;;;10.57;6.95;;;;;;;;;;2034251;29;20076;-83
2024/01/01 01:22:33;;;;;;;12.18;7.97;;;;;;;;;;2034971;29;20028;-84
2024/01/01 01:24:19;;;;;;;12.73;7.53;;;;;;;;;;2026335;29;20108;-84
2024/01/01 01:27:22;;;;;;;19.50;8.80;;;;;;;;;;2006765;29;20511;-84
2024/01/01 01:28:43;;;;;;;12.80;8.23;;;;;;;;;;2033958;29;20055;-84
2024/01/01 01:30:07;;;;;;;13.30;8.32;;;;;;;;;;2028162;29;20040;-84
2024/01/01 01:31:28;;;;;;;9.73;7.43;;;;;;;;;;2026626;29;20410;-84
2024/01/01 01:32:49;;;;;;;12.57;7.68;;;;;;;;;;2035503;29;20032;-84
2024/01/01 01:34:10;;;;;;;13.38;7.35;;;;;;;;;;2026798;29;20509;-83
2024/01/01 01:35:30;;;;;;;15.15;7.72;;;;;;;;;;2027650;29;20037;-84
2024/01/01 01:36:51;;;;;;;15.02;6.78;;;;;;;;;;2033081;29;20047;-86
2024/01/01 01:38:12;;;;;;;14.15;7.90;;;;;;;;;;2030275;29;20036;-83
2024/01/01 01:39:33;;;;;;;12.38;8.82;;;;;;;;;;2026202;29;20044;-84
2024/01/01 01:40:55;;;;;;;10.20;6.60;;;;;;;;;;2032437;29;20031;-84
2024/01/01 01:42:16;;;;;;;12.95;7.45;;;;;;;;;;2021285;29;20401;-85
2024/01/01 01:43:37;;;;;;;11.68;7.32;;;;;;;;;;2022841;29;20024;-82
2024/01/01 01:45:04;;;;;;;14.80;7.45;;;;;;;;;;2031148;29;20021;-84
2024/01/01 01:46:29;;;;;;;14.98;7.50;;;;;;;;;;2027965;29;20497;-84
2024/01/01 01:47:52;;;;;;;6.80;6.03;;;;;;;;;;2027283;29;20064;-83
2024/01/01 01:49:16;;;;;;;10.65;7.05;;;;;;;;;;2027187;29;20036;-85
2024/01/01 01:50:39;;;;;;;14.02;7.40;;;;;;;;;;2027069;29;20040;-83
2024/01/01 01:52:02;;;;;;;14.43;6.63;;;;;;;;;;2019513;29;20033;-85
2024/01/01 01:53:29;;;;;;;9.35;7.03;;;;;;;;;;2025691;29;20025;-84
2024/01/01 01:54:51;;;;;;;11.00;6.80;;;;;;;;;;2018814;29;20033;-84
2024/01/01 01:56:14;;;;;;;;;;;;;;;;;;2025807;29;20033;-84
2024/01/01 01:57:38;;;;;;;12.65;7.07;;;;;;;;;;2026572;29;19908;-85
2024/01/01 01:59:03;;;;;;;13.77;6.85;;;;;;;;;;2021142;29;20025;-86
2024/01/01 02:00:24;;;;;;;12.77;6.88;;;;;;;;;;2016549;29;20521;-84
2024/01/01 02:01:47;;;;;;;15.23;7.47;;;;;;;;;;2017129;29;20033;-85
2024/01/01 02:03:09;;;;;;;9.48;7.07;;;;;;;;;;2023793;29;20029;-84
2024/01/01 02:04:30;;;;;;;8.65;6.07;;;;;;;;;;2019444;29;20033;-84
2024/01/01 02:05:54;;;;;;;11.00;6.15;;;;;;;;;;2019110;29;20048;-84
2024/01/01 02:07:30;;;;;;;12.75;7.72;;;;;;;;;;2010629;29;20045;-85
2024/01/01 02:08:52;;;;;;;13.85;8.00;;;;;;;;;;2039168;29;20032;-83
2024/01/01 02:10:13;;;;;;;13.05;6.70;;;;;;;;;;2031226;29;20037;-86
2024/01/01 02:11:34;;;;;;;17.02;7.35;;;;;;;;;;2026044;29;20033;-83
2024/01/01 02:12:55;;;;;;;11.25;5.97;;;;;;;;;;2034327;29;20043;-85
2024/01/01 02:14:16;;;;;;;10.90;6.22;;;;;;;;;;2029126;29;20024;-85
2024/01/01 02:15:37;;;;;;;16.23;6.78;;;;;;;;;;2019451;29;20490;-84
2024/01/01 02:16:58;;;;;;;11.80;6.60;;;;;;;;;;2008429;29;20045;-86
2024/01/01 02:18:20;;;;;;;12.27;6.63;;;;;;;;;;2017198;29;20299;-84
2024/01/01 02:19:41;;;;;;;12.50;6.65;;;;;;;;;;2016387;29;20033;-84
2024/01/01 02:21:02;;;;;;;13.52;7.10;;;;;;;;;;2018753;29;20509;-80
2024/01/01 02:22:22;;;;;;;11.25;7.25;;;;;;;;;;2019771;29;20033;-85
2024/01/01 02:23:44;;;;;;;17.80;7.28;;;;;;;;;;2028751;29;20048;-86
2024/01/01 02:25:05;;;;;;;12.68;7.13;;;;;;;;;;2027996;29;20390;-85
2024/01/01 02:26:29;;;;;;;11.82;7.05;;;;;;;;;;2026423;29;20032;-83
2024/01/01 02:27:50;;;;;;;10.38;6.75;;;;;;;;;;2026260;29;20041;-84
2024/01/01 02:29:12;;;;;;;14.57;6.57;;;;;;;;;;2026928;29;20084;-85
2024/01/01 02:30:33;;;;;;;13.90;6.78;;;;;;;;;;2033830;29;20021;-81
2024/01/01 02:31:54;;;;;;;11.32;7.40;;;;;;;;;;2028703;29;20036;-79
2024/01/01 02:33:15;;;;;;;15.98;7.35;;;;;;;;;;2025722;29;20028;-80
2024/01/01 02:34:36;;;;;;;11.07;5.95;;;;;;;;;;2031462;29;20021;-80
2024/01/01 02:36:00;;;;;;;14.73;7.20;;;;;;;;;;2025289;29;20075;-80
2024/01/01 02:37:21;;;;;;;14.02;7.35;;;;;;;;;;2025410;29;20037;-82
2024/01/01 02:38:41;;;;;;;15.48;7.05;;;;;;;;;;2025616;29;20025;-83
2024/01/01 02:40:03;;;;;;;13.80;7.35;;;;;;;;;;2023533;29;20055;-80
2024/01/01 02:41:24;;;;;;;22.30;8.18;;;;;;;;;;2031409;29;20021;-80
2024/01/01 02:42:45;;;;;;;18.08;7.90;;;;;;;;;;2029243;29;20033;-78
2024/01/01 02:44:06;;;;;;;11.82;6.82;;;;;;;;;;2026363;29;20040;-79
2024/01/01 02:45:28;;;;;;;13.18;7.35;;;;;;;;;;2033200;29;20040;-83
2024/01/01 02:46:49;;;;;;;14.15;8.57;;;;;;;;;;2011975;29;20470;-80
2024/01/01 02:48:10;;;;;;;10.25;6.68;;;;;;;;;;2023841;29;20493;-84
2024/01/01 02:49:31;;;;;;;17.80;7.68;;;;;;;;;;2022107;29;20040;-80
2024/01/01 02:50:55;;;;;;;17.57;6.87;;;;;;;;;;2018741;29;20410;-80
2024/01/01 02:52:16;;;;;;;10.85;7.70;;;;;;;;;;2026606;29;20503;-80
2024/01/01 02:53:40;;;;;;;12.68;7.30;;;;;;;;;;2021587;29;20033;-80
2024/01/01 02:55:01;;;;;;;12.00;6.75;;;;;;;;;;2031645;29;20035;-80
2024/01/01 02:56:40;;;;;;;14.85;6.93;;;;;;;;;;2034449;29;20036;-83
2024/01/01 02:58:04;;;;;;;16.00;7.63;;;;;;;;;;2034358;29;20040;-79
2024/01/01 02:59:25;;;;;;;13.48;6.45;;;;;;;;;;2032401;29;20024;-79
2024/01/01 03:00:55;;;;;;;13.43;7.05;;;;;;;;;;2030308;29;20025;-80
2024/01/01 03:02:16;;;;;;;23.42;7.82;;;;;;;;;;2027222;29;20561;-82
2024/01/01 03:03:37;;;;;;;18.80;7.55;;;;;;;;;;2033336;29;20405;-79
2024/01/01 03:04:58;;;;;;;12.52;7.22;;;;;;;;;;2029373;29;20043;-89
2024/01/01 03:06:19;;;;;;;9.70;7.07;;;;;;;;;;2033942;29;20528;-83
2024/01/01 03:07:40;;;;;;;13.18;6.38;;;;;;;;;;2028943;29;20044;-85
2024/01/01 03:09:01;;;;;;;19.52;6.78;;;;;;;;;;2034907;29;20040;-83
2024/01/01 03:10:22;;;;;;;12.13;6.40;;;;;;;;;;2026839;29;20044;-89
2024/01/01 03:11:43;;;;;;;15.15;7.82;;;;;;;;;;2032776;29;20033;-87
2024/01/01 03:13:04;;;;;;;13.23;7.07;;;;;;;;;;2034589;29;20036;-84
2024/01/01 03:14:25;;;;;;;13.05;6.78;;;;;;;;;;2035903;29;20088;-83
2024/01/01 03:15:46;;;;;;;13.32;6.50;;;;;;;;;;2034939;29;20035;-83
2024/01/01 03:17:07;;;;;;;26.73;10.15;;;;;;;;;;2025241;29;20439;-83
2024/01/01 03:18:28;;;;;;;14.10;6.50;;;;;;;;;;2026670;29;20068;-83
2024/01/01 03:19:50;;;;;;;10.75;6.47;;;;;;;;;;2025858;29;20033;-84
2024/01/01 03:21:12;;;;;;;14.15;7.38;;;;;;;;;;2026894;29;20084;-83
2024/01/01 03:22:33;;;;;;;6.82;6.00;;;;;;;;;;2033606;29;20496;-83
2024/01/01 03:23:54;;;;;;;12.90;6.68;;;;;;;;;;2021922;29;20041;-83
2024/01/01 03:25:15;;;;;;;18.20;8.57;;;;;;;;;;2019516;29;20033;-84
2024/01/01 03:26:36;;;;;;;14.52;7.25;;;;;;;;;;2019579;29;20029;-84
2024/01/01 03:27:56;;;;;;;12.35;7.10;;;;;;;;;;2024681;29;20037;-83
2024/01/01 03:29:17;;;;;;;12.05;6.50;;;;;;;;;;2027073;29;20029;-84
2024/01/01 03:30:38;;;;;;;17.60;7.10;;;;;;;;;;2031486;29;20028;-85
2024/01/01 03:33:57;;;;;;;13.10;6.15;;;;;;;;;;2026877;29;20021;-82
2024/01/01 03:35:20;;;;;;;14.23;7.18;;;;;;;;;;2033200;29;20028;-84
2024/01/01 03:36:42;;;;;;;13.82;7.10;;;;;;;;;;2026962;29;20029;-83
2024/01/01 03:38:03;;;;;;;10.95;7.47;;;;;;;;;;2030831;29;20520;-80
2024/01/01 03:39:27;;;;;;;14.40;6.67;;;;;;;;;;2033979;29;20032;-81
2024/01/01 03:40:48;;;;;;;9.57;6.03;;;;;;;;;;2024883;29;20440;-87
2024/01/01 03:42:09;;;;;;;13.60;6.97;;;;;;;;;;2023347;29;20040;-87
2024/01/01 03:43:31;;;;;;;15.50;7.03;;;;;;;;;;2023449;29;20074;-86
2024/01/01 03:44:57;;;;;;;16.27;7.38;;;;;;;;;;2024091;29;20048;-88
2024/01/01 03:46:18;;;;;;;15.73;7.65;;;;;;;;;;2031535;29;20028;-82
2024/01/01 03:47:39;;;;;;;19.42;7.07;;;;;;;;;;2028110;29;20044;-88
2024/01/01 03:49:00;;;;;;;13.95;6.82;;;;;;;;;;2032392;29;20032;-88
2024/01/01 03:50:52;;;;;;;17.15;7.50;;;;;;;;;;2028039;29;20408;-88
2024/01/01 03:52:13;;;;;;;14.40;6.97;;;;;;;;;;2032687;29;20028;-87
2024/01/01 03:53:34;;;;;;;13.90;7.30;;;;;;;;;;2032455;29;20025;-87
2024/01/01 03:54:57;;;;;;;19.65;7.93;;;;;;;;;;2028402;29;20032;-86
2024/01/01 03:56:18;;;;;;;15.18;6.68;;;;;;;;;;2031795;29;20039;-89
2024/01/01 03:57:39;;;;;;;12.95;8.23;;;;;;;;;;2026744;29;20069;-87
2024/01/01 03:59:00;;;;;;;12.63;6.78;;;;;;;;;;2025514;29;20033;-82
2024/01/01 04:00:21;;;;;;;15.65;7.20;;;;;;;;;;2020528;29;20029;-89
2024/01/01 04:01:42;;;;;;;12.98;6.25;;;;;;;;;;2025390;29;20029;-86
2024/01/01 04:03:03;;;;;;;13.52;7.25;;;;;;;;;;2020108;29;20040;-86
2024/01/01 04:04:24;;;;;;;12.00;6.80;;;;;;;;;;2027672;29;20519;-88
2024/01/01 04:05:45;;;;;;;20.15;7.53;;;;;;;;;;2026162;29;20033;-85
2024/01/01 04:07:08;;;;;;;15.88;7.30;;;;;;;;;;2025046;29;20037;-89
2024/01/01 04:08:29;;;;;;;12.82;7.68;;;;;;;;;;2030816;29;20112;-86
2024/01/01 04:09:50;;;;;;;14.15;6.57;;;;;;;;;;2023830;29;20075;-87
2024/01/01 04:11:12;;;;;;;16.13;7.20;;;;;;;;;;2025721;29;20513;-85
2024/01/01 04:12:33;;;;;;;17.10;7.20;;;;;;;;;;2029794;29;20040;-85
2024/01/01 04:13:54;;;;;;;10.48;6.45;;;;;;;;;;2032619;29;20412;-87
2024/01/01 04:15:15;;;;;;;14.27;7.43;;;;;;;;;;2026920;29;20040;-86
2024/01/01 04:16:36;;;;;;;14.73;6.43;;;;;;;;;;2027329;29;20048;-88
2024/01/01 04:17:59;;;;;;;16.00;6.70;;;;;;;;;;2024760;29;20040;-88
2024/01/01 04:19:21;;;;;;;12.73;6.97;;;;;;;;;;2024276;29;20416;-80
2024/01/01 04:20:42;;;;;;;13.80;6.00;;;;;;;;;;2026577;29;20520;-80
2024/01/01 04:22:03;;;;;;;13.75;6.68;;;;;;;;;;2025542;29;20033;-80
2024/01/01 04:23:24;;;;;;;10.82;6.60;;;;;;;;;;2031262;29;20559;-80
2024/01/01 04:24:45;;;;;;;10.23;7.10;;;;;;;;;;2027736;29;20029;-81
2024/01/01 04:26:06;;;;;;;15.60;7.15;;;;;;;;;;2026022;29;20060;-81
2024/01/01 04:27:27;;;;;;;15.68;6.72;;;;;;;;;;2031962;29;20040;-80
2024/01/01 04:28:48;;;;;;;21.15;7.60;;;;;;;;;;2024325;29;20029;-80
2024/01/01 04:30:10;;;;;;;16.13;7.53;;;;;;;;;;2024886;29;20036;-81
2024/01/01 04:31:31;;;;;;;13.63;7.10;;;;;;;;;;2033096;29;20401;-80
2024/01/01 04:32:52;;;;;;;9.05;6.68;;;;;;;;;;2041595;29;20036;-79
2024/01/01 04:34:13;;;;;;;20.73;7.63;;;;;;;;;;2036249;29;20036;-79
2024/01/01 04:35:34;;;;;;;9.70;6.53;;;;;;;;;;2031032;29;20040;-81
2024/01/01 04:36:55;;;;;;;9.05;6.35;;;;;;;;;;2038392;29;20028;-80
2024/01/01 04:38:16;;;;;;;11.57;6.97;;;;;;;;;;2035721;29;20036;-79
2024/01/01 04:39:36;;;;;;;10.15;6.72;;;;;;;;;;2033521;29;20032;-80
2024/01/01 04:40:57;;;;;;;16.45;6.20;;;;;;;;;;2041477;29;20032;-80
2024/01/01 04:42:18;;;;;;;11.77;7.05;;;;;;;;;;2036206;29;20036;-80
2024/01/01 04:43:40;;;;;;;10.43;6.47;;;;;;;;;;2030518;29;20039;-80
2024/01/01 04:45:01;;;;;;;11.02;6.18;;;;;;;;;;2038578;29;20039;-81
2024/01/01 04:46:22;;;;;;;11.02;6.65;;;;;;;;;;2034890;29;20036;-82
2024/01/01 04:47:43;;;;;;;10.88;6.25;;;;;;;;;;2039650;29;20048;-81
2024/01/01 04:49:04;;;;;;;12.65;6.45;;;;;;;;;;2035629;29;20024;-80
2024/01/01 04:50:25;;;;;;;15.23;6.82;;;;;;;;;;2041035;29;20075;-81
2024/01/01 04:51:46;;;;;;;14.35;6.72;;;;;;;;;;2035387;29;20075;-80
2024/01/01 04:53:06;;;;;;;18.50;6.97;;;;;;;;;;2039555;29;20040;-81
2024/01/01 04:54:30;;;;;;;15.38;7.03;;;;;;;;;;2034296;29;20047;-81
2024/01/01 04:55:51;;;;;;;12.77;6.75;;;;;;;;;;2032897;29;20400;-80
2024/01/01 04:57:12;;;;;;;14.07;7.50;;;;;;;;;;2033480;29;20024;-80
2024/01/01 04:58:34;;;;;;;16.17;8.48;;;;;;;;;;2040869;29;20039;-82
2024/01/01 04:59:55;;;;;;;9.85;5.70;;;;;;;;;;2040841;29;20027;-81
2024/01/01 05:01:16;;;;;;;15.65;7.32;;;;;;;;;;2024698;29;20032;-80
2024/01/01 05:02:37;;;;;;;12.73;6.55;;;;;;;;;;2026832;29;20036;-81
2024/01/01 05:03:58;;;;;;;14.23;7.07;;;;;;;;;;2032516;29;20035;-80
2024/01/01 05:05:19;;;;;;;13.35;6.35;;;;;;;;;;2032991;29;20080;-82
2024/01/01 05:06:40;;;;;;;14.68;7.10;;;;;;;;;;2039386;29;20032;-82
2024/01/01 05:08:01;;;;;;;15.05;7.40;;;;;;;;;;2037054;29;20039;-82
2024/01/01 05:09:24;;;;;;;16.90;7.18;;;;;;;;;;2029512;29;20033;-79
2024/01/01 05:10:45;;;;;;;18.00;7.53;;;;;;;;;;2032959;29;20033;-81
2024/01/01 05:12:06;;;;;;;14.80;6.63;;;;;;;;;;2033252;29;20043;-82
2024/01/01 05:13:30;;;;;;;8.75;5.93;;;;;;;;;;2026537;29;20036;-80
2024/01/01 05:14:51;;;;;;;11.40;6.72;;;;;;;;;;2025738;29;20040;-80
2024/01/01 05:16:12;;;;;;;14.15;7.55;;;;;;;;;;2032553;29;20036;-82
2024/01/01 05:17:32;;;;;;;12.85;7.50;;;;;;;;;;2032398;29;20033;-78
2024/01/01 05:18:53;;;;;;;13.68;7.82;;;;;;;;;;2032926;29;20432;-81
2024/01/01 05:20:15;;;;;;;12.43;6.60;;;;;;;;;;2025221;29;20041;-83
2024/01/01 05:21:35;;;;;;;13.88;6.93;;;;;;;;;;2030416;29;20029;-82
2024/01/01 05:22:56;;;;;;;21.60;8.00;;;;;;;;;;2028842;29;20029;-82
2024/01/01 05:24:17;;;;;;;10.27;6.47;;;;;;;;;;2032960;29;20036;-82
2024/01/01 05:25:38;;;;;;;12.13;7.15;;;;;;;;;;2033603;29;20032;-83
2024/01/01 05:27:00;;;;;;;11.60;6.03;;;;;;;;;;2027277;29;20029;-83
2024/01/01 05:28:21;;;;;;;20.17;7.75;;;;;;;;;;2029274;29;20092;-81
2024/01/01 05:29:43;;;;;;;14.02;7.22;;;;;;;;;;2032138;29;20032;-82
2024/01/01 05:31:07;;;;;;;6.90;5.93;;;;;;;;;;2033532;29;20036;-82
2024/01/01 05:32:29;;;;;;;10.88;6.10;;;;;;;;;;2025733;29;20033;-82
2024/01/01 05:33:53;;;;;;;13.45;6.90;;;;;;;;;;2032914;29;20036;-82
2024/01/01 05:35:14;;;;;;;16.42;6.70;;;;;;;;;;2040633;29;20091;-81
2024/01/01 05:36:35;;;;;;;11.82;6.20;;;;;;;;;;2041415;29;20399;-82
2024/01/01 05:37:56;;;;;;;12.75;7.00;;;;;;;;;;2039498;29;20047;-84
2024/01/01 05:39:19;;;;;;;16.92;7.55;;;;;;;;;;2040191;29;20369;-81
2024/01/01 05:40:42;;;;;;;10.63;6.40;;;;;;;;;;2033689;29;20036;-80
2024/01/01 05:42:03;;;;;;;11.93;7.22;;;;;;;;;;2033807;29;20566;-80
2024/01/01 05:43:24;;;;;;;8.20;6.65;;;;;;;;;;2034728;29;20032;-82
2024/01/01 05:44:45;;;;;;;11.43;5.63;;;;;;;;;;2032982;29;20028;-81
2024/01/01 05:46:06;;;;;;;12.48;6.18;;;;;;;;;;2033671;29;20020;-82
2024/01/01 05:47:27;;;;;;;17.83;7.85;;;;;;;;;;2036624;29;20035;-81
2024/01/01 05:48:48;;;;;;;14.68;6.78;;;;;;;;;;2032948;29;20029;-81
2024/01/01 05:50:09;;;;;;;13.93;6.30;;;;;;;;;;2032214;29;20029;-80
2024/01/01 05:51:30;;;;;;;10.95;5.88;;;;;;;;;;2038584;29;20024;-80
2024/01/01 05:52:51;;;;;;;12.15;6.78;;;;;;;;;;2035504;29;20036;-81
2024/01/01 05:54:12;;;;;;;12.10;6.28;;;;;;;;;;2032563;29;20515;-80
2024/01/01 05:55:33;;;;;;;9.52;5.75;;;;;;;;;;2032177;29;20078;-80
2024/01/01 05:56:54;;;;;;;11.60;6.70;;;;;;;;;;2034894;29;20032;-80
2024/01/01 05:58:15;;;;;;;9.55;6.20;;;;;;;;;;2039952;29;20502;-80
2024/01/01 05:59:36;;;;;;;11.07;6.65;;;;;;;;;;2040683;29;20047;-82
2024/01/01 06:00:57;;;;;;;10.88;6.63;;;;;;;;;;2042352;29;20035;-80
2024/01/01 06:02:18;;;;;;;12.18;7.60;;;;;;;;;;2042164;29;20028;-81
2024/01/01 06:03:40;;;;;;;19.00;7.15;;;;;;;;;;2036596;29;20039;-79
2024/01/01 06:05:01;;;;;;;13.60;6.68;;;;;;;;;;2041425;29;20031;-82
2024/01/01 06:06:25;;;;;;;14.38;6.80;;;;;;;;;;2036173;29;20032;-81
2024/01/01 06:07:46;;;;;;;13.45;6.90;;;;;;;;;;2038646;29;20036;-81
2024/01/01 06:09:08;;;;;;;15.40;7.60;;;;;;;;;;2026948;29;20433;-83
2024/01/01 06:10:29;;;;;;;13.30;6.88;;;;;;;;;;2027901;29;20404;-82
2024/01/01 06:11:50;;;;;;;10.05;6.95;;;;;;;;;;2039573;29;20381;-82
2024/01/01 06:13:11;;;;;;;10.45;6.60;;;;;;;;;;2034506;29;20040;-82
2024/01/01 06:14:32;;;;;;;12.98;6.78;;;;;;;;;;2034228;29;20108;-82
2024/01/01 06:15:53;;;;;;;10.10;6.32;;;;;;;;;;2034407;29;20040;-83
2024/01/01 06:17:13;;;;;;;10.75;6.63;;;;;;;;;;2033901;29;20040;-84
2024/01/01 06:18:34;;;;;;;11.57;6.45;;;;;;;;;;2029474;29;20036;-81
2024/01/01 06:19:56;;;;;;;12.68;6.38;;;;;;;;;;2031359;29;20489;-80
2024/01/01 06:21:17;;;;;;;12.75;6.72;;;;;;;;;;2035255;29;20397;-80
2024/01/01 06:22:38;;;;;;;11.85;7.40;;;;;;;;;;2034296;29;20508;-81
2024/01/01 06:23:58;;;;;;;15.52;7.75;;;;;;;;;;2028989;29;20040;-82
2024/01/01 06:25:19;;;;;;;15.70;7.60;;;;;;;;;;2031370;29;20036;-82
2024/01/01 06:26:40;;;;;;;10.73;7.10;;;;;;;;;;2033558;29;20032;-81
2024/01/01 06:28:01;;;;;;;11.20;6.60;;;;;;;;;;2038100;29;20101;-80
2024/01/01 06:29:26;;;;;;;13.70;7.35;;;;;;;;;;2040805;29;20024;-82
2024/01/01 06:30:47;;;;;;;11.88;6.10;;;;;;;;;;2035372;29;20032;-81
2024/01/01 06:32:08;;;;;;;15.05;7.05;;;;;;;;;;2039003;29;20039;-81
2024/01/01 06:33:29;;;;;;;9.55;6.70;;;;;;;;;;2041032;29;20036;-81
2024/01/01 06:34:50;;;;;;;9.23;6.18;;;;;;;;;;2036296;29;20145;-81
2024/01/01 06:36:11;;;;;;;10.85;7.40;;;;;;;;;;2046443;29;20423;-82
2024/01/01 06:37:32;;;;;;;15.40;7.75;;;;;;;;;;2043978;29;20095;-81
2024/01/01 06:38:53;;;;;;;12.57;6.20;;;;;;;;;;2036183;29;20429;-81
2024/01/01 06:40:14;;;;;;;14.00;7.38;;;;;;;;;;2041598;29;20036;-80
2024/01/01 06:41:34;;;;;;;10.13;6.43;;;;;;;;;;2041620;29;20030;-81
2024/01/01 06:42:55;;;;;;;12.48;7.47;;;;;;;;;;2041389;29;20024;-81
2024/01/01 06:44:16;;;;;;;13.25;7.38;;;;;;;;;;2041080;29;20523;-81
2024/01/01 06:45:40;;;;;;;17.58;7.68;;;;;;;;;;2041551;29;20027;-81
2024/01/01 06:47:03;;;;;;;15.52;6.60;;;;;;;;;;2041456;29;20487;-82
2024/01/01 06:48:27;;;;;;;11.25;6.28;;;;;;;;;;2041066;29;20047;-81
2024/01/01 06:49:55;;;;;;;12.30;6.65;;;;;;;;;;2041424;29;20042;-87
2024/01/01 06:51:38;;;;;;;14.02;7.07;;;;;;;;;;2041948;29;20415;-87
2024/01/01 06:53:08;;;;;;;14.25;7.43;;;;;;;;;;2042090;29;20114;-86
2024/01/01 06:54:29;;;;;;;15.38;7.63;;;;;;;;;;2033448;29;20043;-85
2024/01/01 06:56:08;;;;;;;13.85;6.82;;;;;;;;;;2034319;29;20040;-85
2024/01/01 06:57:39;;;;;;;20.23;7.55;;;;;;;;;;2034187;29;20031;-84
2024/01/01 06:59:03;;;;;;;11.85;6.90;;;;;;;;;;2020350;29;20496;-84
2024/01/01 07:00:23;;;;;;;12.80;6.65;;;;;;;;;;2039650;29;20522;-85
2024/01/01 07:01:44;;;;;;;10.02;6.22;;;;;;;;;;2033663;29;20032;-86
2024/01/01 07:03:05;;;;;;;10.65;6.75;;;;;;;;;;2038578;29;20040;-85
2024/01/01 07:04:27;;;;;;;16.63;7.75;;;;;;;;;;2037425;29;20027;-83
2024/01/01 07:05:48;;;;;;;11.38;6.50;;;;;;;;;;2026656;29;20040;-85
2024/01/01 07:07:11;;;;;;;15.88;7.30;;;;;;;;;;2022857;29;20040;-83
2024/01/01 07:08:32;;;;;;;16.00;7.13;;;;;;;;;;2038909;29;20035;-84
2024/01/01 07:09:53;;;;;;;14.88;7.50;;;;;;;;;;2030672;29;20028;-84
2024/01/01 07:11:14;;;;;;;17.25;7.82;;;;;;;;;;2032904;29;20044;-85
2024/01/01 07:12:37;;;;;;;8.63;6.53;;;;;;;;;;2031397;29;20042;-82
2024/01/01 07:13:59;;;;;;;14.00;8.32;;;;;;;;;;2040288;29;20148;-83
2024/01/01 07:15:19;;;;;;;16.17;6.83;;;;;;;;;;2041360;29;20064;-82
2024/01/01 07:16:40;;;;;;;16.02;8.05;;;;;;;;;;2041793;29;20823;-82
2024/01/01 07:18:01;;;;;;;13.35;6.18;;;;;;;;;;2033505;29;20154;-82
2024/01/01 07:19:49;;;;;;;10.80;6.50;;;;;;;;;;2038892;29;20043;-83
2024/01/01 07:21:39;;;;;;;11.82;7.03;;;;;;;;;;2042191;29;20032;-83
2024/01/01 07:23:00;;;;;;;18.95;8.73;;;;;;;;;;2033876;29;20027;-81
2024/01/01 07:24:21;;;;;;;16.55;7.82;;;;;;;;;;2026672;29;20032;-88
2024/01/01 07:25:42;;;;;;;17.42;9.05;;;;;;;;;;2033046;29;20118;-89
2024/01/01 07:27:04;;;;;;;14.05;7.50;;;;;;;;;;2039513;29;20032;-85
2024/01/01 07:28:25;;;;;;;25.40;9.48;;;;;;;;;;2042437;29;20036;-87
2024/01/01 07:29:50;;;;;;;19.08;7.15;;;;;;;;;;2041198;29;20124;-88
2024/01/01 07:31:11;;;;;;;14.43;6.63;;;;;;;;;;2028217;29;20041;-85
2024/01/01 07:34:41;;;;;;;14.18;7.15;;;;;;;;;;2033433;29;20039;-88
2024/01/01 07:36:20;;;;;;;13.43;6.97;;;;;;;;;;2026852;29;20558;-87
2024/01/01 07:37:41;;;;;;;16.73;7.45;;;;;;;;;;2033235;29;20040;-88
2024/01/01 07:39:02;;;;;;;10.95;7.05;;;;;;;;;;2034629;29;20040;-88
2024/01/01 07:40:25;;;;;;;18.15;7.65;;;;;;;;;;2041952;29;20024;-89
2024/01/01 07:41:50;;;;;;;11.38;6.93;;;;;;;;;;2036479;29;20009;-88
2024/01/01 07:43:13;;;;;;;12.35;7.25;;;;;;;;;;2041683;29;20028;-88
2024/01/01 07:44:49;;;;;;;13.18;7.05;;;;;;;;;;2028268;29;20052;-88
2024/01/01 07:48:11;;;;;;;13.43;7.20;;;;;;;;;;2034464;29;20393;-86
2024/01/01 07:49:34;;;;;;;15.00;8.25;;;;;;;;;;2040843;29;20032;-87
2024/01/01 07:50:55;;;;;;;13.23;7.22;;;;;;;;;;2041287;29;20027;-80
2024/01/01 07:52:19;;;;;;;18.02;8.27;;;;;;;;;;2034135;29;20040;-81
2024/01/01 07:53:42;;;;;;;14.40;6.50;;;;;;;;;;2032595;29;20024;-82
2024/01/01 07:55:03;;;;;;;12.43;5.97;;;;;;;;;;2030937;29;20028;-83
2024/01/01 07:56:33;;;;;;;13.30;6.65;;;;;;;;;;2038653;29;20040;-83
2024/01/01 07:58:09;;;;;;;16.58;6.97;;;;;;;;;;2040693;29;20479;-82
2024/01/01 07:59:30;;;;;;;15.10;7.47;;;;;;;;;;2032447;29;20096;-83
2024/01/01 08:01:09;;;;;;;12.90;6.38;;;;;;;;;;2036428;29;20028;-82
2024/01/01 08:02:33;;;;;;;14.50;6.65;;;;;;;;;;2040548;29;20428;-79
2024/01/01 08:03:54;;;;;;;11.90;7.53;;;;;;;;;;2040422;29;20032;-82
2024/01/01 08:05:26;;;;;;;11.93;6.78;;;;;;;;;;2042145;28;20455;-82
2024/01/01 08:06:48;;;;;;;13.98;7.47;;;;;;;;;;2049083;29;20038;-83
2024/01/01 08:08:26;;;;;;;15.65;7.25;;;;;;;;;;2032735;29;21352;-80
2024/01/01 08:11:55;;;;;;;14.48;7.55;;;;;;;;;;2041099;29;20032;-80
2024/01/01 08:13:36;;;;;;;19.13;7.72;;;;;;;;;;2041072;29;20054;-81
2024/01/01 08:15:03;;;;;;;15.18;7.32;;;;;;;;;;2032581;29;20035;-80
2024/01/01 08:18:35;;;;;;;12.82;6.85;;;;;;;;;;2041154;29;20020;-81
2024/01/01 08:19:57;;;;;;;39.50;11.75;;;;;;;;;;2013376;29;20036;-81
2024/01/01 08:21:33;;;;;;;15.95;7.68;;;;;;;;;;2032450;29;20028;-81